Time;durP1;ratioP1;P1;durP2;ratioP2;P2;SDS_P1;SDS_P2;PMS_P1;PMS_P2;Temp;Humidity;BMP_temperature;BMP_pressure;BME280_temperature;BME280_humidity;BME280_pressure;Samples;Min_cycle;Max_cycle;Signal;HPM_P1;HPM_P2
2022/06/29 00:00:55;;;;;;;19.67;6.57;;;22.30;79.20;;;;;;5093858;28;20020;-14
2022/06/29 00:03:21;;;;;;;17.02;6.35;;;22.30;78.70;;;;;;5093725;28;20028;-14
2022/06/29 00:05:47;;;;;;;18.85;6.22;;;22.30;78.70;;;;;;5093408;28;20032;-14
2022/06/29 00:08:14;;;;;;;14.63;5.07;;;22.30;78.60;;;;;;5092159;28;20024;-14
2022/06/29 00:10:41;;;;;;;14.90;5.40;;;22.20;78.70;;;;;;5093625;28;20020;-14
2022/06/29 00:13:07;;;;;;;14.65;5.28;;;22.20;78.90;;;;;;5093456;28;20024;-14
2022/06/29 00:15:33;;;;;;;12.73;5.72;;;22.20;78.60;;;;;;5093615;28;20434;-14
2022/06/29 00:17:58;;;;;;;14.65;5.13;;;22.20;78.40;;;;;;5092087;28;20449;-14
2022/06/29 00:20:24;;;;;;;18.23;5.40;;;22.10;78.20;;;;;;5093263;28;20040;-14
2022/06/29 00:22:50;;;;;;;14.20;4.50;;;22.10;77.80;;;;;;5093692;28;20387;-14
2022/06/29 00:25:17;;;;;;;13.75;4.70;;;22.20;77.50;;;;;;5093416;28;20103;-14
2022/06/29 00:27:43;;;;;;;13.23;4.57;;;22.20;77.20;;;;;;5093099;28;20502;-14
2022/06/29 00:30:11;;;;;;;14.98;5.43;;;22.20;76.90;;;;;;5093517;28;20539;-14
2022/06/29 00:32:37;;;;;;;15.57;4.90;;;22.20;76.80;;;;;;5096478;28;20395;-14
2022/06/29 00:35:04;;;;;;;9.55;4.13;;;22.20;76.70;;;;;;5097309;28;20024;-14
2022/06/29 00:37:30;;;;;;;12.10;5.20;;;22.20;76.60;;;;;;5097142;28;20027;-14
2022/06/29 00:39:55;;;;;;;8.68;3.70;;;22.20;76.60;;;;;;5097377;28;20110;-15
2022/06/29 00:42:22;;;;;;;14.05;4.20;;;22.10;76.40;;;;;;5095614;28;20490;-14
2022/06/29 00:44:48;;;;;;;16.17;4.57;;;22.10;76.30;;;;;;5097092;28;20028;-14
2022/06/29 00:47:14;;;;;;;15.63;4.85;;;22.10;76.30;;;;;;5097096;28;20035;-14
2022/06/29 00:49:40;;;;;;;15.05;4.95;;;22.20;75.90;;;;;;5097291;28;20111;-14
2022/06/29 00:52:10;;;;;;;17.17;4.85;;;22.10;75.80;;;;;;5096944;28;20484;-14
2022/06/29 00:54:49;;;;;;;14.65;4.80;;;22.20;75.60;;;;;;5097385;28;20028;-14
2022/06/29 00:57:27;;;;;;;14.65;4.38;;;22.20;75.00;;;;;;5097244;28;20033;-14
2022/06/29 00:59:58;;;;;;;13.70;4.45;;;22.30;74.50;;;;;;5096816;28;20035;-14
2022/06/29 01:02:34;;;;;;;15.23;4.50;;;22.40;74.20;;;;;;5096971;28;20036;-15
2022/06/29 01:05:01;;;;;;;12.45;4.72;;;22.40;73.80;;;;;;5097421;28;20136;-14
2022/06/29 01:07:29;;;;;;;15.00;4.60;;;22.40;73.60;;;;;;5096691;28;20036;-14
2022/06/29 01:09:55;;;;;;;14.00;4.60;;;22.50;73.50;;;;;;5097268;28;20137;-14
2022/06/29 01:12:22;;;;;;;14.73;4.45;;;22.50;73.30;;;;;;5096858;28;20363;-14
2022/06/29 01:14:50;;;;;;;15.15;4.60;;;22.50;73.20;;;;;;5097107;28;20547;-15
2022/06/29 01:17:19;;;;;;;10.93;4.82;;;22.50;73.00;;;;;;5096792;28;20031;-14
2022/06/29 01:19:45;;;;;;;14.07;4.53;;;22.50;72.70;;;;;;5096438;28;20035;-15
2022/06/29 01:22:11;;;;;;;16.75;4.38;;;22.60;72.50;;;;;;5096752;28;20140;-14
2022/06/29 01:24:38;;;;;;;15.60;4.63;;;22.60;72.40;;;;;;5096274;28;20401;-14
2022/06/29 01:27:04;;;;;;;11.77;4.15;;;22.60;72.30;;;;;;5096454;28;20039;-13
2022/06/29 01:29:31;;;;;;;12.30;4.43;;;22.60;72.00;;;;;;5094953;28;20028;-14
2022/06/29 01:31:57;;;;;;;17.17;5.15;;;22.60;71.70;;;;;;5096491;28;20100;-14
2022/06/29 01:34:27;;;;;;;18.90;5.38;;;22.70;71.40;;;;;;5096097;28;20432;-14
2022/06/29 01:36:53;;;;;;;16.38;5.00;;;22.70;70.70;;;;;;5096500;28;20031;-14
2022/06/29 01:39:19;;;;;;;13.00;4.22;;;22.70;70.00;;;;;;5096282;28;20032;-14
2022/06/29 01:41:46;;;;;;;19.02;4.72;;;22.80;70.10;;;;;;5095990;28;20020;-14
2022/06/29 01:44:11;;;;;;;11.40;4.10;;;22.80;69.80;;;;;;5094862;28;20387;-14
2022/06/29 01:46:38;;;;;;;8.95;3.97;;;22.80;69.70;;;;;;5095703;28;20042;-14
2022/06/29 01:49:05;;;;;;;11.40;3.80;;;22.90;69.60;;;;;;5095885;28;20024;-14
2022/06/29 01:51:31;;;;;;;17.30;4.85;;;22.80;69.60;;;;;;5096069;28;20039;-14
2022/06/29 01:53:57;;;;;;;14.40;4.38;;;22.90;69.70;;;;;;5096423;28;20024;-14
2022/06/29 01:56:23;;;;;;;10.20;4.00;;;22.90;69.80;;;;;;5095541;28;20115;-14
2022/06/29 01:58:49;;;;;;;12.82;4.03;;;22.90;69.90;;;;;;5095661;28;20052;-14
2022/06/29 02:01:15;;;;;;;17.90;4.38;;;22.90;69.90;;;;;;5096063;28;20103;-14
2022/06/29 02:03:41;;;;;;;13.43;4.22;;;22.80;69.90;;;;;;5096464;28;20024;-14
2022/06/29 02:06:07;;;;;;;11.65;4.45;;;22.80;70.10;;;;;;5095795;28;20034;-13
2022/06/29 02:08:33;;;;;;;10.13;4.47;;;22.80;70.30;;;;;;5095392;28;20499;-14
2022/06/29 02:11:01;;;;;;;13.40;4.65;;;22.80;70.60;;;;;;5095459;28;20471;-14
2022/06/29 02:13:27;;;;;;;12.82;4.85;;;22.70;71.00;;;;;;5095845;28;20395;-14
2022/06/29 02:15:54;;;;;;;22.92;6.03;;;22.60;71.40;;;;;;5095369;28;20471;-14
2022/06/29 02:18:20;;;;;;;15.20;5.38;;;22.50;71.80;;;;;;5093824;28;20063;-14
2022/06/29 02:20:46;;;;;;;11.82;5.10;;;22.40;72.30;;;;;;5095316;28;20028;-14
2022/06/29 02:23:12;;;;;;;12.20;4.78;;;22.40;72.70;;;;;;5095816;28;20058;-13
2022/06/29 02:25:38;;;;;;;9.85;5.18;;;22.30;73.10;;;;;;5095504;28;20081;-14
2022/06/29 02:28:05;;;;;;;11.38;4.60;;;22.20;73.30;;;;;;5095322;28;20048;-14
2022/06/29 02:36:03;;;;;;;10.63;4.07;;;22.00;74.40;;;;;;5095417;28;20071;-14
2022/06/29 02:38:29;;;;;;;9.57;4.25;;;21.90;74.70;;;;;;5094614;28;20630;-14
2022/06/29 02:40:55;;;;;;;11.00;4.70;;;21.90;75.00;;;;;;5094902;28;20597;-14
2022/06/29 02:43:21;;;;;;;11.20;4.88;;;21.90;75.30;;;;;;5094662;28;20119;-14
2022/06/29 02:45:47;;;;;;;12.57;4.90;;;21.90;75.40;;;;;;5095128;28;20028;-14
2022/06/29 02:48:12;;;;;;;13.20;4.80;;;21.80;75.70;;;;;;5094923;28;20028;-14
2022/06/29 02:50:38;;;;;;;14.20;5.10;;;21.80;75.90;;;;;;5094520;28;20039;-14
2022/06/29 02:53:04;;;;;;;11.00;5.00;;;21.80;76.00;;;;;;5094908;28;20020;-13
2022/06/29 02:55:30;;;;;;;13.00;4.97;;;21.70;76.50;;;;;;5094180;28;20031;-14
2022/06/29 02:57:56;;;;;;;14.48;5.78;;;21.70;76.70;;;;;;5094458;28;20027;-14
2022/06/29 03:00:22;;;;;;;13.30;5.07;;;21.60;77.00;;;;;;5094177;28;20028;-14
2022/06/29 03:02:48;;;;;;;12.20;4.82;;;21.50;77.00;;;;;;5095020;28;20040;-13
2022/06/29 03:05:14;;;;;;;13.30;5.45;;;21.50;77.60;;;;;;5095047;28;20356;-14
2022/06/29 03:07:40;;;;;;;14.50;5.70;;;21.50;77.80;;;;;;5094395;28;20016;-14
2022/06/29 03:10:06;;;;;;;14.40;5.22;;;21.40;78.00;;;;;;5094300;28;20020;-14
2022/06/29 03:12:32;;;;;;;14.68;6.35;;;21.40;78.00;;;;;;5093960;28;20430;-14
2022/06/29 03:14:58;;;;;;;14.80;5.60;;;21.40;78.90;;;;;;5094725;28;20493;-14
2022/06/29 03:17:24;;;;;;;16.20;5.95;;;21.40;78.50;;;;;;5094225;28;20110;-14
2022/06/29 03:19:50;;;;;;;14.80;6.13;;;21.40;78.60;;;;;;5094413;28;20035;-14
2022/06/29 03:22:16;;;;;;;16.08;6.35;;;21.40;78.60;;;;;;5094182;28;20471;-13
2022/06/29 03:24:42;;;;;;;16.23;6.70;;;21.40;78.80;;;;;;5094078;28;20467;-14
2022/06/29 03:27:08;;;;;;;16.50;7.13;;;21.40;79.20;;;;;;5094161;28;20032;-14
2022/06/29 03:29:34;;;;;;;15.02;6.70;;;21.40;79.50;;;;;;5093910;28;20039;-13
2022/06/29 03:31:59;;;;;;;14.15;6.13;;;21.40;79.40;;;;;;5093985;28;20052;-14
2022/06/29 03:34:25;;;;;;;17.35;6.38;;;21.50;79.30;;;;;;5093952;28;20467;-15
2022/06/29 03:36:51;;;;;;;16.55;6.97;;;21.50;79.30;;;;;;5094489;28;20459;-14
2022/06/29 03:39:18;;;;;;;16.80;7.13;;;21.60;78.90;;;;;;5094850;28;20050;-13
2022/06/29 03:41:43;;;;;;;15.48;6.65;;;21.60;78.80;;;;;;5094103;28;20028;-14
2022/06/29 03:44:10;;;;;;;15.02;6.40;;;21.60;78.80;;;;;;5093652;28;20436;-14
2022/06/29 03:46:36;;;;;;;11.98;6.28;;;21.70;78.70;;;;;;5093391;28;20024;-14
2022/06/29 03:49:02;;;;;;;11.90;5.68;;;21.70;78.60;;;;;;5094207;28;20016;-14
2022/06/29 03:51:28;;;;;;;14.52;5.93;;;21.80;78.40;;;;;;5093563;28;20514;-14
2022/06/29 03:53:54;;;;;;;18.00;7.72;;;21.80;78.20;;;;;;5093877;28;20085;-14
2022/06/29 03:56:20;;;;;;;18.98;6.72;;;21.90;78.00;;;;;;5093413;28;20467;-14
2022/06/29 03:58:46;;;;;;;18.58;6.50;;;21.90;77.90;;;;;;5093396;28;20036;-14
2022/06/29 04:01:12;;;;;;;17.20;6.50;;;21.90;77.70;;;;;;5093560;28;20017;-17
2022/06/29 04:03:38;;;;;;;19.80;6.95;;;22.00;77.60;;;;;;5092216;28;20107;-14
2022/06/29 04:06:04;;;;;;;13.77;5.88;;;22.00;77.50;;;;;;5092945;28;20034;-14
2022/06/29 04:08:30;;;;;;;15.68;5.97;;;22.00;77.30;;;;;;5093622;28;20059;-17
2022/06/29 04:10:56;;;;;;;16.25;6.00;;;22.10;77.10;;;;;;5094259;28;20084;-16
2022/06/29 04:13:24;;;;;;;17.52;6.43;;;22.20;76.90;;;;;;5093614;28;20487;-16
2022/06/29 04:15:50;;;;;;;16.38;6.57;;;22.20;76.60;;;;;;5093515;28;20027;-16
2022/06/29 04:18:17;;;;;;;18.38;6.88;;;22.30;76.50;;;;;;5092994;28;20504;-15
2022/06/29 04:23:27;;;;;;;18.25;6.68;;;22.30;76.50;;;;;;5093602;28;20039;-15
2022/06/29 04:25:53;;;;;;;16.38;6.40;;;22.30;76.50;;;;;;5093533;28;20028;-15
2022/06/29 04:28:19;;;;;;;17.10;6.22;;;22.30;76.40;;;;;;5092759;28;20406;-15
2022/06/29 04:30:45;;;;;;;19.63;6.68;;;22.40;76.20;;;;;;5093361;28;20450;-15
2022/06/29 04:33:11;;;;;;;20.30;6.97;;;22.40;76.10;;;;;;5093091;28;20055;-15
2022/06/29 04:35:37;;;;;;;18.58;6.57;;;22.40;76.00;;;;;;5093723;28;20024;-16
2022/06/29 04:38:02;;;;;;;20.90;7.43;;;22.50;75.70;;;;;;5093088;28;20027;-15
2022/06/29 04:40:28;;;;;;;15.10;6.07;;;22.50;75.50;;;;;;5093092;28;20032;-14
2022/06/29 04:42:54;;;;;;;16.90;6.15;;;22.60;75.30;;;;;;5093281;28;20129;-15
2022/06/29 04:48:05;;;;;;;16.73;5.82;;;22.60;75.00;;;;;;5093098;28;20123;-14
2022/06/29 04:50:31;;;;;;;13.50;5.97;;;22.70;74.30;;;;;;5092815;28;20096;-15
2022/06/29 04:52:57;;;;;;;18.08;6.07;;;22.80;74.00;;;;;;5093378;28;20036;-15
2022/06/29 04:55:25;;;;;;;16.85;6.78;;;22.80;73.70;;;;;;5093436;28;20031;-15
2022/06/29 04:57:52;;;;;;;12.15;5.70;;;22.90;73.00;;;;;;5093129;28;20032;-15
2022/06/29 05:00:19;;;;;;;18.38;6.63;;;22.90;72.80;;;;;;5092842;28;20040;-15
2022/06/29 05:02:45;;;;;;;15.18;6.40;;;23.00;72.40;;;;;;5091661;28;20383;-14
2022/06/29 05:05:10;;;;;;;13.80;6.82;;;23.00;72.30;;;;;;5093180;28;20053;-15
2022/06/29 05:07:36;;;;;;;15.48;7.03;;;23.00;72.40;;;;;;5093132;28;20028;-15
2022/06/29 05:10:03;;;;;;;15.10;7.15;;;23.00;72.50;;;;;;5093385;28;20445;-15
2022/06/29 05:12:29;;;;;;;13.50;6.30;;;23.00;72.40;;;;;;5092620;28;20028;-15
2022/06/29 05:14:55;;;;;;;13.13;6.68;;;23.00;72.30;;;;;;5092644;28;20024;-15
2022/06/29 05:17:21;;;;;;;17.42;7.07;;;23.00;72.50;;;;;;5094293;28;20054;-15
2022/06/29 05:19:47;;;;;;;16.85;7.03;;;22.90;72.30;;;;;;5096727;28;20365;-14
2022/06/29 05:22:13;;;;;;;14.88;6.60;;;22.90;72.40;;;;;;5096776;28;20028;-15
2022/06/29 05:24:39;;;;;;;13.50;6.20;;;23.00;72.60;;;;;;5096718;28;20383;-15
2022/06/29 05:27:05;;;;;;;11.15;6.75;;;22.90;72.60;;;;;;5096669;28;20024;-15
2022/06/29 05:29:31;;;;;;;11.80;6.38;;;23.00;72.40;;;;;;5096424;28;20054;-14
2022/06/29 05:31:57;;;;;;;11.40;6.18;;;22.90;72.50;;;;;;5096412;28;20062;-15
2022/06/29 05:34:23;;;;;;;9.25;5.43;;;23.00;72.20;;;;;;5095938;28;20020;-14
2022/06/29 05:36:49;;;;;;;11.02;5.53;;;23.00;72.20;;;;;;5096164;28;20024;-14
2022/06/29 05:39:15;;;;;;;12.65;5.70;;;23.00;71.90;;;;;;5096331;28;20032;-15
2022/06/29 05:41:41;;;;;;;8.68;5.57;;;23.10;71.60;;;;;;5096647;28;20020;-15
2022/06/29 05:44:07;;;;;;;11.73;5.40;;;23.10;71.40;;;;;;5096515;28;20078;-14
2022/06/29 05:46:33;;;;;;;12.93;5.72;;;23.20;71.10;;;;;;5096086;28;20103;-14
2022/06/29 05:48:59;;;;;;;9.18;5.40;;;23.20;70.90;;;;;;5096393;28;20424;-14
2022/06/29 05:51:25;;;;;;;8.95;5.60;;;23.30;71.00;;;;;;5095849;28;20059;-14
2022/06/29 05:53:51;;;;;;;13.95;6.10;;;23.30;70.50;;;;;;5095859;28;20030;-14
2022/06/29 05:56:17;;;;;;;10.95;5.68;;;23.30;70.50;;;;;;5095885;28;20016;-14
2022/06/29 05:58:43;;;;;;;11.88;5.47;;;23.40;70.40;;;;;;5095830;28;20104;-14
2022/06/29 06:01:09;;;;;;;10.38;6.00;;;23.50;70.30;;;;;;5095788;28;20028;-14
2022/06/29 06:03:36;;;;;;;11.60;6.07;;;23.60;70.20;;;;;;5094463;28;20016;-14
2022/06/29 06:06:03;;;;;;;8.27;4.93;;;23.70;70.10;;;;;;5095910;28;20026;-14
2022/06/29 06:08:29;;;;;;;11.23;5.18;;;23.90;69.90;;;;;;5095319;28;20025;-14
2022/06/29 06:10:55;;;;;;;10.02;5.22;;;23.90;69.60;;;;;;5095787;28;20055;-14
2022/06/29 06:13:21;;;;;;;10.98;5.38;;;24.00;69.00;;;;;;5095623;28;20048;-14
2022/06/29 06:15:47;;;;;;;17.05;5.57;;;24.00;68.70;;;;;;5095682;28;20383;-14
2022/06/29 06:18:14;;;;;;;14.75;5.40;;;24.00;68.80;;;;;;5095638;28;20024;-14
2022/06/29 06:20:40;;;;;;;11.95;5.15;;;24.00;68.60;;;;;;5095474;28;20482;-14
2022/06/29 06:23:06;;;;;;;13.85;5.28;;;24.00;68.70;;;;;;5095275;28;20032;-14
2022/06/29 06:25:33;;;;;;;15.57;5.70;;;24.10;68.60;;;;;;5096141;28;20071;-14
2022/06/29 06:28:00;;;;;;;12.23;4.95;;;24.10;68.60;;;;;;5093622;28;20064;-14
2022/06/29 06:30:27;;;;;;;10.98;5.18;;;24.20;68.70;;;;;;5094266;28;20020;-14
2022/06/29 06:32:54;;;;;;;10.60;5.55;;;24.20;68.50;;;;;;5095261;28;20023;-14
2022/06/29 06:35:20;;;;;;;12.18;5.38;;;24.40;68.40;;;;;;5095046;28;20059;-14
2022/06/29 06:37:47;;;;;;;15.45;5.65;;;24.40;68.30;;;;;;5094957;28;20027;-14
2022/06/29 06:42:58;;;;;;;9.05;5.07;;;24.50;68.10;;;;;;5095164;28;20062;-13
2022/06/29 06:45:24;;;;;;;10.13;5.15;;;24.50;68.00;;;;;;5095190;28;20035;-14
2022/06/29 06:47:50;;;;;;;14.13;5.10;;;24.60;67.80;;;;;;5095128;28;20058;-14
2022/06/29 06:50:16;;;;;;;9.38;4.50;;;24.70;67.80;;;;;;5094668;28;20039;-14
2022/06/29 06:52:43;;;;;;;12.45;5.00;;;24.90;67.70;;;;;;5094794;28;20357;-14
2022/06/29 06:55:09;;;;;;;10.73;5.05;;;25.00;67.30;;;;;;5095279;28;20028;-14
2022/06/29 06:57:35;;;;;;;10.80;4.80;;;25.20;66.90;;;;;;5094627;28;20027;-14
2022/06/29 07:00:02;;;;;;;11.65;5.10;;;25.40;66.50;;;;;;5094664;28;20036;-13
2022/06/29 07:02:28;;;;;;;9.30;5.00;;;25.60;66.10;;;;;;5094616;28;20078;-14
2022/06/29 07:04:54;;;;;;;10.23;4.45;;;25.80;65.80;;;;;;5094795;28;20428;-13
2022/06/29 07:07:20;;;;;;;11.30;4.97;;;25.90;65.30;;;;;;5094797;28;20467;-13
2022/06/29 07:09:46;;;;;;;9.07;4.30;;;26.10;64.80;;;;;;5094544;28;20402;-13
2022/06/29 07:12:12;;;;;;;10.20;5.00;;;26.30;64.50;;;;;;5093104;28;20028;-13
2022/06/29 07:14:38;;;;;;;12.40;5.20;;;26.40;63.90;;;;;;5092781;28;20024;-13
2022/06/29 07:17:04;;;;;;;13.18;5.82;;;26.50;63.60;;;;;;5094670;28;20024;-13
2022/06/29 07:19:30;;;;;;;10.90;5.10;;;26.70;63.20;;;;;;5094397;28;20032;-13
2022/06/29 07:21:56;;;;;;;10.20;5.43;;;26.80;63.20;;;;;;5094358;28;20039;-13
2022/06/29 07:24:22;;;;;;;11.27;5.40;;;27.00;62.80;;;;;;5094011;28;20060;-13
2022/06/29 07:26:48;;;;;;;9.80;5.28;;;27.30;62.30;;;;;;5094321;28;20027;-14
2022/06/29 07:29:14;;;;;;;12.30;6.30;;;27.50;61.80;;;;;;5093790;28;20039;-13
2022/06/29 07:31:40;;;;;;;12.88;5.82;;;27.70;61.50;;;;;;5093982;28;20024;-13
2022/06/29 07:34:06;;;;;;;12.63;5.82;;;27.90;60.50;;;;;;5093926;28;20036;-13
2022/06/29 07:36:32;;;;;;;11.25;5.70;;;28.10;59.70;;;;;;5093764;28;20049;-13
2022/06/29 07:38:58;;;;;;;14.30;6.63;;;28.30;59.60;;;;;;5094048;28;20144;-13
2022/06/29 07:41:24;;;;;;;12.32;5.93;;;28.50;58.60;;;;;;5094097;28;20531;-14
2022/06/29 07:43:50;;;;;;;10.50;5.95;;;28.70;58.40;;;;;;5093960;28;20039;-13
2022/06/29 07:46:16;;;;;;;10.38;5.25;;;28.80;58.10;;;;;;5093514;28;20510;-13
2022/06/29 07:48:42;;;;;;;12.55;5.43;;;28.90;57.70;;;;;;5093585;28;20021;-14
2022/06/29 07:51:08;;;;;;;12.10;5.25;;;29.00;57.50;;;;;;5093706;28;20044;-13
2022/06/29 07:53:35;;;;;;;10.93;5.68;;;29.10;57.50;;;;;;5093962;28;20028;-13
2022/06/29 07:56:00;;;;;;;14.13;5.88;;;29.20;57.40;;;;;;5093524;28;20028;-14
2022/06/29 07:58:26;;;;;;;10.93;5.22;;;29.30;57.50;;;;;;5093472;28;20024;-14
2022/06/29 08:00:53;;;;;;;12.57;6.18;;;29.40;57.50;;;;;;5093469;28;20028;-13
2022/06/29 08:03:19;;;;;;;14.70;5.22;;;29.50;57.30;;;;;;5093461;28;20063;-13
2022/06/29 08:05:46;;;;;;;11.20;5.75;;;29.60;57.30;;;;;;5093750;28;20089;-14
2022/06/29 08:08:12;;;;;;;12.90;6.20;;;29.70;56.10;;;;;;5093509;28;20036;-13
2022/06/29 08:10:38;;;;;;;13.00;5.82;;;29.70;56.20;;;;;;5093183;28;20062;-13
2022/06/29 08:13:04;;;;;;;12.65;6.78;;;29.70;56.30;;;;;;5093274;28;20058;-13
2022/06/29 08:15:30;;;;;;;9.18;5.68;;;29.70;55.60;;;;;;5093367;28;20066;-13
2022/06/29 08:17:56;;;;;;;11.18;5.43;;;29.70;55.70;;;;;;5093651;28;20039;-13
2022/06/29 08:20:23;;;;;;;10.65;5.85;;;29.70;55.20;;;;;;5093052;28;20036;-13
2022/06/29 08:22:49;;;;;;;9.50;5.38;;;29.70;55.20;;;;;;5093082;28;20111;-13
2022/06/29 08:25:15;;;;;;;12.77;6.07;;;29.80;55.10;;;;;;5093611;28;20024;-13
2022/06/29 08:27:41;;;;;;;14.82;7.65;;;29.80;54.90;;;;;;5092885;28;20055;-13
2022/06/29 08:30:09;;;;;;;11.38;6.45;;;29.80;54.80;;;;;;5093383;28;20020;-13
2022/06/29 08:32:39;;;;;;;15.75;6.25;;;29.80;54.80;;;;;;5093312;28;20062;-13
2022/06/29 08:35:06;;;;;;;12.63;5.78;;;29.60;55.20;;;;;;5094016;28;20020;-13
2022/06/29 08:37:32;;;;;;;13.57;5.18;;;29.40;56.00;;;;;;5093374;28;20101;-13
2022/06/29 08:39:58;;;;;;;14.10;6.13;;;29.30;56.60;;;;;;5093030;28;20494;-13
2022/06/29 08:42:24;;;;;;;10.68;5.63;;;29.10;57.00;;;;;;5093018;28;20024;-13
2022/06/29 08:44:51;;;;;;;11.32;6.57;;;28.90;57.50;;;;;;5093244;28;20101;-13
2022/06/29 08:47:18;;;;;;;13.18;6.88;;;28.80;57.80;;;;;;5093424;28;20046;-13
2022/06/29 08:49:44;;;;;;;12.93;5.60;;;28.80;57.90;;;;;;5092984;28;20472;-13
2022/06/29 08:52:11;;;;;;;13.25;6.45;;;28.70;58.10;;;;;;5094046;28;20058;-14
2022/06/29 08:54:42;;;;;;;12.70;6.70;;;28.60;58.50;;;;;;5096794;28;20078;-13
2022/06/29 08:57:08;;;;;;;12.60;6.80;;;28.60;58.20;;;;;;5097073;28;20483;-13
2022/06/29 08:59:34;;;;;;;16.67;7.03;;;28.50;58.00;;;;;;5097104;28;20077;-13
2022/06/29 09:02:01;;;;;;;11.55;6.50;;;28.40;58.40;;;;;;5097137;28;20028;-13
2022/06/29 09:04:27;;;;;;;15.55;6.70;;;28.40;58.60;;;;;;5096939;28;20111;-13
2022/06/29 09:06:55;;;;;;;11.45;7.13;;;28.30;58.70;;;;;;5096742;28;20031;-14
2022/06/29 09:09:22;;;;;;;12.23;7.40;;;28.20;58.90;;;;;;5096692;28;20017;-14
2022/06/29 09:11:52;;;;;;;13.15;7.20;;;28.30;59.20;;;;;;5096907;28;20073;-13
2022/06/29 09:14:23;;;;;;;14.38;7.88;;;28.30;59.30;;;;;;5096489;28;20103;-13
2022/06/29 09:16:49;;;;;;;13.05;6.97;;;28.30;59.50;;;;;;5096876;28;20051;-13
2022/06/29 09:19:16;;;;;;;13.77;7.70;;;28.40;59.60;;;;;;5096384;28;20040;-14
2022/06/29 09:21:53;;;;;;;13.05;6.80;;;28.50;59.60;;;;;;5096854;28;20028;-13
2022/06/29 09:24:21;;;;;;;11.68;6.68;;;28.80;59.00;;;;;;5096688;28;20063;-14
2022/06/29 09:26:56;;;;;;;16.20;9.23;;;29.40;58.10;;;;;;5095238;28;20028;-13
2022/06/29 09:29:29;;;;;;;14.73;9.85;;;30.00;56.90;;;;;;5096163;28;20048;-13
2022/06/29 09:32:04;;;;;;;14.63;10.00;;;30.60;54.90;;;;;;5096378;28;20027;-13
2022/06/29 09:34:31;;;;;;;21.48;10.95;;;31.30;53.00;;;;;;5095968;28;20028;-14
2022/06/29 09:37:00;;;;;;;19.25;11.25;;;32.00;52.50;;;;;;5096792;28;20480;-14
2022/06/29 09:39:42;;;;;;;18.45;9.32;;;32.60;51.30;;;;;;5096080;28;20380;-14
2022/06/29 09:42:11;;;;;;;11.70;7.97;;;33.20;50.20;;;;;;5096115;28;20035;-13
2022/06/29 09:44:38;;;;;;;18.58;12.00;;;33.70;48.30;;;;;;5095818;28;20024;-14
2022/06/29 09:47:07;;;;;;;15.35;10.25;;;34.40;47.00;;;;;;5096418;28;20012;-14
2022/06/29 09:49:34;;;;;;;15.98;9.15;;;34.90;46.80;;;;;;5095906;28;20020;-13
2022/06/29 09:52:02;;;;;;;12.18;7.90;;;35.40;45.90;;;;;;5096230;28;20111;-14
2022/06/29 09:54:44;;;;;;;16.52;10.43;;;35.90;45.00;;;;;;5095658;28;20024;-14
2022/06/29 09:57:12;;;;;;;12.63;7.70;;;36.30;44.00;;;;;;5096134;28;20028;-14
2022/06/29 10:02:37;;;;;;;17.60;9.65;;;36.60;43.20;;;;;;5095844;28;20506;-14
2022/06/29 10:05:05;;;;;;;16.35;8.75;;;36.90;43.40;;;;;;5094510;28;20539;-14
2022/06/29 10:07:34;;;;;;;14.40;8.82;;;37.20;41.70;;;;;;5095934;28;20047;-13
2022/06/29 10:10:02;;;;;;;15.52;8.77;;;37.40;41.50;;;;;;5094557;28;20024;-14
2022/06/29 10:15:57;;;;;;;15.98;9.05;;;37.50;42.30;;;;;;5095821;28;20043;-14
2022/06/29 10:18:36;;;;;;;15.23;10.00;;;37.60;41.80;;;;;;5095309;28;20043;-14
2022/06/29 10:21:10;;;;;;;15.07;8.50;;;37.50;40.90;;;;;;5095237;28;20093;-14
2022/06/29 10:23:53;;;;;;;19.70;9.98;;;37.50;41.20;;;;;;5095651;28;20028;-14
2022/06/29 10:26:30;;;;;;;18.10;9.55;;;37.30;41.10;;;;;;5095449;28;20062;-13
2022/06/29 10:29:05;;;;;;;18.77;11.13;;;37.10;41.50;;;;;;5095090;28;20102;-13
2022/06/29 10:31:59;;;;;;;19.17;9.90;;;36.70;42.30;;;;;;5095199;28;20032;-14
2022/06/29 10:34:31;;;;;;;14.93;9.95;;;36.20;43.30;;;;;;5095327;28;20027;-14
2022/06/29 10:37:03;;;;;;;18.40;8.63;;;35.90;43.20;;;;;;5095633;28;20028;-13
2022/06/29 10:39:43;;;;;;;13.25;9.50;;;35.70;43.70;;;;;;5094951;28;20077;-14
2022/06/29 10:45:12;;;;;;;18.90;10.32;;;35.50;44.20;;;;;;5095233;28;20039;-14
2022/06/29 10:47:55;;;;;;;18.08;9.52;;;35.80;43.80;;;;;;5094901;28;20036;-14
2022/06/29 10:50:26;;;;;;;15.68;9.20;;;35.90;43.20;;;;;;5094962;28;20031;-14
2022/06/29 10:52:57;;;;;;;15.82;9.85;;;36.00;43.30;;;;;;5094809;28;20059;-14
2022/06/29 10:55:28;;;;;;;18.70;11.88;;;36.50;42.10;;;;;;5095017;28;20016;-14
2022/06/29 10:57:55;;;;;;;15.13;8.93;;;36.70;42.30;;;;;;5094662;28;20028;-14
2022/06/29 11:00:27;;;;;;;18.95;9.88;;;36.50;42.30;;;;;;5094396;28;20055;-14
2022/06/29 11:02:53;;;;;;;17.92;10.40;;;36.30;42.50;;;;;;5095140;28;20020;-14
2022/06/29 11:05:19;;;;;;;15.55;10.23;;;35.70;43.20;;;;;;5094410;28;20415;-14
2022/06/29 11:13:32;;;;;;;16.80;11.13;;;33.30;50.10;;;;;;5086303;28;20047;-14
2022/06/29 11:16:00;;;;;;;15.90;9.98;;;32.20;52.60;;;;;;5094184;28;20360;-14
2022/06/29 11:18:29;;;;;;;15.32;8.63;;;31.20;54.90;;;;;;5094273;28;20082;-14
2022/06/29 11:21:05;;;;;;;13.85;8.25;;;30.40;56.20;;;;;;5094042;28;20067;-13
2022/06/29 11:23:34;;;;;;;11.43;6.80;;;30.00;57.70;;;;;;5094299;28;20016;-14
2022/06/29 11:26:01;;;;;;;12.18;5.78;;;29.70;57.70;;;;;;5094100;28;20039;-14
2022/06/29 11:28:30;;;;;;;10.90;5.13;;;29.60;58.10;;;;;;5093701;28;20075;-14
2022/06/29 11:31:02;;;;;;;10.55;5.13;;;29.60;57.80;;;;;;5094005;28;20430;-14
2022/06/29 11:33:33;;;;;;;8.43;5.53;;;29.70;57.50;;;;;;5094453;28;20020;-13
2022/06/29 11:36:22;;;;;;;11.48;6.28;;;29.80;57.60;;;;;;5094002;28;20028;-13
2022/06/29 11:38:57;;;;;;;12.60;6.20;;;29.90;57.30;;;;;;5094328;28;20051;-13
2022/06/29 11:43:03;;;;;;;12.13;5.85;;;30.00;57.00;;;;;;5094129;28;20027;-14
2022/06/29 11:44:27;;;;;;;13.05;5.57;;;30.10;56.60;;;;;;5093744;28;20081;-14
2022/06/29 11:46:55;;;;;;;5.50;4.03;;;30.20;56.50;;;;;;5094050;28;20024;-13
2022/06/29 11:52:13;;;;;;;9.18;4.70;;;29.40;56.00;;;;;;5073878;28;20494;-16
2022/06/29 11:54:56;;;;;;;11.23;5.38;;;28.70;58.90;;;;;;5073333;28;20528;-15
2022/06/29 11:57:22;;;;;;;13.88;6.10;;;28.20;61.30;;;;;;5073433;28;20025;-16
2022/06/29 11:59:48;;;;;;;13.35;6.15;;;27.90;62.20;;;;;;5073467;28;20028;-16
2022/06/29 12:02:18;;;;;;;10.32;5.93;;;27.50;63.60;;;;;;5073361;28;20024;-17
2022/06/29 12:04:46;;;;;;;15.05;6.35;;;27.40;64.10;;;;;;5073608;28;20102;-16
2022/06/29 12:07:17;;;;;;;11.60;5.50;;;27.30;65.40;;;;;;5073479;28;20036;-16
2022/06/29 12:09:54;;;;;;;12.75;5.60;;;27.00;66.40;;;;;;5073138;28;20021;-15
2022/06/29 12:12:20;;;;;;;12.15;5.40;;;26.80;67.40;;;;;;5073171;28;20021;-16
2022/06/29 12:14:46;;;;;;;12.35;5.88;;;26.70;68.20;;;;;;5073191;28;20020;-16
2022/06/29 12:17:14;;;;;;;13.82;6.55;;;26.70;68.60;;;;;;5073016;28;20032;-16
2022/06/29 12:19:40;;;;;;;14.27;7.07;;;26.60;69.90;;;;;;5073040;28;20029;-17
2022/06/29 12:22:07;;;;;;;14.65;6.82;;;26.30;72.10;;;;;;5073046;28;20361;-16
2022/06/29 12:24:33;;;;;;;12.88;6.95;;;26.10;72.30;;;;;;5073502;28;20414;-17
2022/06/29 12:27:00;;;;;;;10.93;6.60;;;26.20;73.50;;;;;;5072314;28;20100;-15
2022/06/29 12:29:26;;;;;;;11.80;6.70;;;26.10;73.30;;;;;;5072928;28;20515;-16
2022/06/29 12:31:51;;;;;;;9.48;5.63;;;26.10;72.80;;;;;;5073286;28;20021;-17
2022/06/29 12:34:17;;;;;;;10.93;6.25;;;26.10;72.50;;;;;;5072810;28;20020;-16
2022/06/29 12:36:43;;;;;;;11.40;5.90;;;26.10;72.80;;;;;;5073889;28;20036;-16
2022/06/29 12:39:09;;;;;;;13.38;6.45;;;26.10;72.90;;;;;;5073034;28;20032;-17
2022/06/29 12:41:36;;;;;;;13.73;6.35;;;26.20;71.80;;;;;;5073239;28;20035;-16
2022/06/29 12:44:04;;;;;;;10.48;5.90;;;26.00;72.80;;;;;;5073182;28;20041;-18
2022/06/29 12:46:32;;;;;;;11.50;6.68;;;25.80;73.00;;;;;;5072618;28;20060;-17
2022/06/29 12:49:00;;;;;;;13.48;6.43;;;25.50;73.80;;;;;;5072585;28;20052;-17
2022/06/29 12:51:28;;;;;;;13.93;7.05;;;25.50;73.10;;;;;;5073104;28;20056;-16
2022/06/29 12:53:54;;;;;;;12.95;7.05;;;25.50;73.60;;;;;;5072753;28;20438;-15
2022/06/29 12:56:20;;;;;;;15.18;7.13;;;25.50;73.30;;;;;;5072540;28;20028;-17
2022/06/29 12:58:46;;;;;;;13.48;8.52;;;25.50;73.40;;;;;;5071410;28;20029;-16
2022/06/29 13:01:12;;;;;;;15.80;9.07;;;25.60;73.60;;;;;;5072963;28;20024;-16
2022/06/29 13:03:38;;;;;;;12.70;8.15;;;25.60;73.90;;;;;;5072552;28;20036;-16
2022/06/29 13:06:05;;;;;;;17.65;10.23;;;25.80;73.40;;;;;;5072609;28;20028;-15
2022/06/29 13:08:31;;;;;;;16.60;10.32;;;25.90;73.80;;;;;;5072431;28;20029;-15
2022/06/29 13:10:59;;;;;;;15.52;9.43;;;26.00;73.30;;;;;;5072882;28;20103;-16